ROT371X LFST-EBBR
Flight info
| Callsign | ROT371X |
|---|---|
| Flight time | 0h 44m |
| Altitude | 24000 |
| Route | GTQ N852 LNO |
| Aircraft | B737/M-SDE2E3FGHIRWXY/LB1 |
Departure
| Time | 2026-05-04 12:51 |
|---|---|
| Airport | Strasbourg Airport (LFST) |
Arrival
| Time | 2026-05-04 13:35 |
|---|---|
| Airport | Brussels Airport (EBBR) |
| Time | Latitude | Longitude | Altitude | Speed | Heading |
|---|---|---|---|---|---|
| 2026-05-04 12:32 | 48.54394 | 7.62825 | 511 ft | 0 kts | 319° |
| 2026-05-04 12:42 | 48.54393 | 7.62826 | 538 ft | 1 kts | 319° |
| 2026-05-04 12:43 | 48.54375 | 7.62849 | 511 ft | 4 kts | 319° |
| 2026-05-04 12:43 | 48.54359 | 7.62870 | 511 ft | 4 kts | 316° |
| 2026-05-04 12:43 | 48.54343 | 7.62900 | 511 ft | 4 kts | 279° |
| 2026-05-04 12:43 | 48.54351 | 7.62929 | 511 ft | 4 kts | 229° |
| 2026-05-04 12:44 | 48.54358 | 7.62942 | 511 ft | 0 kts | 229° |
| 2026-05-04 12:46 | 48.54349 | 7.62926 | 511 ft | 5 kts | 229° |
| 2026-05-04 12:46 | 48.54311 | 7.62861 | 511 ft | 10 kts | 225° |
| 2026-05-04 12:46 | 48.54244 | 7.62848 | 511 ft | 10 kts | 153° |
| 2026-05-04 12:47 | 48.54190 | 7.62916 | 511 ft | 11 kts | 139° |
| 2026-05-04 12:47 | 48.54116 | 7.62913 | 511 ft | 13 kts | 222° |
| 2026-05-04 12:47 | 48.54048 | 7.62799 | 511 ft | 16 kts | 229° |
| 2026-05-04 12:47 | 48.53965 | 7.62658 | 511 ft | 19 kts | 228° |
| 2026-05-04 12:48 | 48.53870 | 7.62493 | 511 ft | 22 kts | 229° |
| 2026-05-04 12:48 | 48.53762 | 7.62309 | 511 ft | 25 kts | 229° |
| 2026-05-04 12:48 | 48.53643 | 7.62105 | 511 ft | 27 kts | 229° |
| 2026-05-04 12:48 | 48.53539 | 7.61927 | 511 ft | 21 kts | 228° |
| 2026-05-04 12:49 | 48.53444 | 7.61764 | 511 ft | 20 kts | 229° |
| 2026-05-04 12:49 | 48.53352 | 7.61606 | 511 ft | 20 kts | 229° |
| 2026-05-04 12:49 | 48.53287 | 7.61496 | 511 ft | 10 kts | 221° |
| 2026-05-04 12:49 | 48.53221 | 7.61493 | 511 ft | 10 kts | 149° |
| 2026-05-04 12:50 | 48.53168 | 7.61560 | 511 ft | 10 kts | 138° |
| 2026-05-04 12:50 | 48.53143 | 7.61642 | 511 ft | 10 kts | 61° |
| 2026-05-04 12:50 | 48.53191 | 7.61727 | 511 ft | 22 kts | 49° |
| 2026-05-04 12:50 | 48.53507 | 7.62267 | 512 ft | 113 kts | 49° |
| 2026-05-04 12:51 | 48.54172 | 7.63420 | 738 ft | 166 kts | 49° |
| 2026-05-04 12:51 | 48.54944 | 7.64787 | 1631 ft | 179 kts | 49° |
| 2026-05-04 12:51 | 48.55745 | 7.66246 | 2631 ft | 182 kts | 48° |
| 2026-05-04 12:51 | 48.56639 | 7.67774 | 3335 ft | 205 kts | 47° |
| 2026-05-04 12:52 | 48.57615 | 7.69425 | 4106 ft | 215 kts | 48° |
| 2026-05-04 12:52 | 48.58622 | 7.71143 | 4934 ft | 221 kts | 50° |
| 2026-05-04 12:52 | 48.59685 | 7.72852 | 5792 ft | 227 kts | 40° |
| 2026-05-04 12:52 | 48.61176 | 7.73747 | 6626 ft | 240 kts | 5° |
| 2026-05-04 12:53 | 48.62791 | 7.73173 | 7503 ft | 242 kts | 325° |
| 2026-05-04 12:53 | 48.63836 | 7.71287 | 8526 ft | 232 kts | 285° |
| 2026-05-04 12:53 | 48.63935 | 7.68991 | 9579 ft | 219 kts | 250° |
| 2026-05-04 12:53 | 48.63286 | 7.66923 | 10555 ft | 217 kts | 234° |
| 2026-05-04 12:54 | 48.62433 | 7.65040 | 11504 ft | 222 kts | 232° |
| 2026-05-04 12:54 | 48.61537 | 7.63127 | 12636 ft | 224 kts | 233° |
| 2026-05-04 12:54 | 48.60638 | 7.61183 | 13762 ft | 228 kts | 234° |
| 2026-05-04 12:54 | 48.59736 | 7.59207 | 14770 ft | 232 kts | 234° |
| 2026-05-04 12:55 | 48.58819 | 7.57184 | 15836 ft | 235 kts | 234° |
| 2026-05-04 12:55 | 48.57893 | 7.55136 | 16890 ft | 238 kts | 234° |
| 2026-05-04 12:55 | 48.56990 | 7.52996 | 17843 ft | 250 kts | 244° |
| 2026-05-04 12:55 | 48.56547 | 7.50288 | 18195 ft | 287 kts | 263° |
| 2026-05-04 12:56 | 48.56769 | 7.47101 | 18423 ft | 327 kts | 283° |
| 2026-05-04 12:56 | 48.57897 | 7.43970 | 18955 ft | 356 kts | 308° |
| 2026-05-04 12:56 | 48.59785 | 7.41457 | 19871 ft | 363 kts | 313° |
| 2026-05-04 12:56 | 48.61525 | 7.38681 | 20845 ft | 365 kts | 306° |
| 2026-05-04 12:57 | 48.63150 | 7.35707 | 21769 ft | 370 kts | 304° |
| 2026-05-04 12:57 | 48.64780 | 7.32655 | 22662 ft | 376 kts | 304° |
| 2026-05-04 12:57 | 48.66452 | 7.29573 | 23547 ft | 380 kts | 305° |
| 2026-05-04 12:57 | 48.68147 | 7.26517 | 23895 ft | 377 kts | 306° |
| 2026-05-04 12:58 | 48.69846 | 7.23502 | 24009 ft | 378 kts | 306° |
| 2026-05-04 12:58 | 48.71560 | 7.20481 | 24012 ft | 378 kts | 306° |
| 2026-05-04 12:58 | 48.73276 | 7.17465 | 24018 ft | 377 kts | 306° |
| 2026-05-04 12:58 | 48.74982 | 7.14465 | 24021 ft | 376 kts | 306° |
| 2026-05-04 12:59 | 48.76688 | 7.11458 | 24020 ft | 376 kts | 306° |
| 2026-05-04 12:59 | 48.78362 | 7.08499 | 24002 ft | 363 kts | 306° |
| 2026-05-04 12:59 | 48.79951 | 7.05648 | 23997 ft | 345 kts | 305° |
| 2026-05-04 12:59 | 48.81455 | 7.02927 | 23993 ft | 329 kts | 304° |
| 2026-05-04 13:00 | 48.82907 | 7.00285 | 24002 ft | 324 kts | 304° |
| 2026-05-04 13:00 | 48.84346 | 6.97657 | 24017 ft | 326 kts | 304° |
| 2026-05-04 13:00 | 48.85802 | 6.94993 | 24029 ft | 330 kts | 304° |
| 2026-05-04 13:00 | 48.87279 | 6.92296 | 24024 ft | 333 kts | 304° |
| 2026-05-04 13:01 | 48.88761 | 6.89592 | 24021 ft | 334 kts | 304° |
| 2026-05-04 13:01 | 48.90227 | 6.86918 | 24016 ft | 334 kts | 304° |
| 2026-05-04 13:01 | 48.91733 | 6.84170 | 24008 ft | 333 kts | 304° |
| 2026-05-04 13:01 | 48.93152 | 6.81580 | 24006 ft | 331 kts | 304° |
| 2026-05-04 13:02 | 48.94623 | 6.78892 | 24007 ft | 330 kts | 304° |
| 2026-05-04 13:02 | 48.96087 | 6.76213 | 24006 ft | 328 kts | 304° |
| 2026-05-04 13:02 | 48.97540 | 6.73551 | 24005 ft | 327 kts | 304° |
| 2026-05-04 13:02 | 48.99206 | 6.71182 | 23996 ft | 336 kts | 324° |
| 2026-05-04 13:03 | 49.01312 | 6.69615 | 24030 ft | 339 kts | 332° |
| 2026-05-04 13:03 | 49.03493 | 6.68223 | 24019 ft | 340 kts | 333° |
| 2026-05-04 13:03 | 49.05686 | 6.66851 | 24013 ft | 341 kts | 333° |
| 2026-05-04 13:03 | 49.07881 | 6.65462 | 24004 ft | 342 kts | 333° |
| 2026-05-04 13:04 | 49.10072 | 6.64052 | 24009 ft | 343 kts | 333° |
| 2026-05-04 13:04 | 49.12267 | 6.62622 | 24008 ft | 343 kts | 332° |
| 2026-05-04 13:04 | 49.13723 | 6.61668 | 24002 ft | 343 kts | 332° |
| 2026-05-04 13:04 | 49.15947 | 6.60204 | 24003 ft | 343 kts | 332° |
| 2026-05-04 13:05 | 49.18108 | 6.58778 | 24017 ft | 343 kts | 332° |
| 2026-05-04 13:05 | 49.20281 | 6.57342 | 24007 ft | 344 kts | 332° |
| 2026-05-04 13:05 | 49.22476 | 6.55889 | 24008 ft | 344 kts | 332° |
| 2026-05-04 13:05 | 49.24676 | 6.54426 | 24004 ft | 345 kts | 332° |
| 2026-05-04 13:06 | 49.26877 | 6.52960 | 24005 ft | 345 kts | 332° |
| 2026-05-04 13:06 | 49.29078 | 6.51492 | 24001 ft | 345 kts | 332° |
| 2026-05-04 13:06 | 49.31274 | 6.50028 | 23997 ft | 345 kts | 332° |
| 2026-05-04 13:06 | 49.33473 | 6.48559 | 23998 ft | 344 kts | 332° |
| 2026-05-04 13:07 | 49.35668 | 6.47093 | 24003 ft | 344 kts | 332° |
| 2026-05-04 13:07 | 49.37847 | 6.45604 | 24004 ft | 343 kts | 331° |
| 2026-05-04 13:07 | 49.40000 | 6.44029 | 24007 ft | 342 kts | 330° |
| 2026-05-04 13:07 | 49.42143 | 6.42458 | 24021 ft | 342 kts | 330° |
| 2026-05-04 13:08 | 49.44299 | 6.40911 | 24017 ft | 342 kts | 331° |
| 2026-05-04 13:08 | 49.46461 | 6.39367 | 24016 ft | 343 kts | 331° |
| 2026-05-04 13:08 | 49.48646 | 6.37879 | 24011 ft | 344 kts | 333° |
| 2026-05-04 13:08 | 49.50853 | 6.36463 | 24016 ft | 344 kts | 334° |
| 2026-05-04 13:09 | 49.53063 | 6.35061 | 24014 ft | 343 kts | 334° |
| 2026-05-04 13:09 | 49.55271 | 6.33654 | 24022 ft | 343 kts | 333° |
| 2026-05-04 13:09 | 49.57470 | 6.32241 | 24028 ft | 343 kts | 333° |
| 2026-05-04 13:09 | 49.59669 | 6.30819 | 24025 ft | 343 kts | 333° |
| 2026-05-04 13:10 | 49.61869 | 6.29392 | 24030 ft | 343 kts | 333° |
| 2026-05-04 13:10 | 49.64071 | 6.27959 | 24036 ft | 345 kts | 333° |
| 2026-05-04 13:10 | 49.66279 | 6.26484 | 24038 ft | 347 kts | 332° |
| 2026-05-04 13:10 | 49.68494 | 6.24982 | 24017 ft | 347 kts | 332° |
| 2026-05-04 13:11 | 49.70698 | 6.23482 | 24024 ft | 346 kts | 332° |
| 2026-05-04 13:11 | 49.72902 | 6.21983 | 24021 ft | 345 kts | 332° |
| 2026-05-04 13:11 | 49.75095 | 6.20492 | 24018 ft | 344 kts | 332° |
| 2026-05-04 13:11 | 49.77288 | 6.19001 | 24007 ft | 343 kts | 332° |
| 2026-05-04 13:12 | 49.79464 | 6.17522 | 24000 ft | 341 kts | 332° |
| 2026-05-04 13:12 | 49.81631 | 6.16048 | 24012 ft | 339 kts | 332° |
| 2026-05-04 13:12 | 49.83789 | 6.14579 | 24013 ft | 338 kts | 332° |
| 2026-05-04 13:12 | 49.85944 | 6.13111 | 24011 ft | 339 kts | 333° |
| 2026-05-04 13:13 | 49.88142 | 6.11761 | 24007 ft | 341 kts | 336° |
| 2026-05-04 13:13 | 49.90379 | 6.10509 | 24011 ft | 343 kts | 336° |
| 2026-05-04 13:13 | 49.92629 | 6.09255 | 24006 ft | 344 kts | 336° |
| 2026-05-04 13:13 | 49.94883 | 6.07982 | 24006 ft | 345 kts | 336° |
| 2026-05-04 13:14 | 49.97110 | 6.06711 | 23996 ft | 345 kts | 336° |
| 2026-05-04 13:14 | 49.99393 | 6.05400 | 24002 ft | 345 kts | 336° |
| 2026-05-04 13:14 | 50.01645 | 6.04106 | 23997 ft | 345 kts | 336° |
| 2026-05-04 13:14 | 50.03890 | 6.02813 | 23999 ft | 344 kts | 336° |
| 2026-05-04 13:15 | 50.06130 | 6.01523 | 24005 ft | 344 kts | 336° |
| 2026-05-04 13:15 | 50.08374 | 6.00229 | 24003 ft | 344 kts | 336° |
| 2026-05-04 13:15 | 50.10619 | 5.98936 | 23998 ft | 344 kts | 336° |
| 2026-05-04 13:15 | 50.12860 | 5.97645 | 23991 ft | 343 kts | 336° |
| 2026-05-04 13:16 | 50.15101 | 5.96353 | 23996 ft | 343 kts | 336° |
| 2026-05-04 13:16 | 50.17335 | 5.95064 | 23995 ft | 343 kts | 336° |
| 2026-05-04 13:16 | 50.19574 | 5.93770 | 23999 ft | 343 kts | 336° |
| 2026-05-04 13:16 | 50.21810 | 5.92477 | 23993 ft | 343 kts | 336° |
| 2026-05-04 13:17 | 50.24048 | 5.91181 | 23994 ft | 343 kts | 336° |
| 2026-05-04 13:17 | 50.26255 | 5.89901 | 23995 ft | 343 kts | 336° |
| 2026-05-04 13:17 | 50.28491 | 5.88603 | 23982 ft | 343 kts | 335° |
| 2026-05-04 13:17 | 50.30744 | 5.87293 | 23656 ft | 348 kts | 336° |
| 2026-05-04 13:18 | 50.33025 | 5.85965 | 23147 ft | 351 kts | 336° |
| 2026-05-04 13:18 | 50.35343 | 5.84616 | 22622 ft | 351 kts | 336° |
| 2026-05-04 13:18 | 50.37597 | 5.83304 | 22106 ft | 350 kts | 336° |
| 2026-05-04 13:18 | 50.39905 | 5.81958 | 21570 ft | 349 kts | 336° |
| 2026-05-04 13:19 | 50.42149 | 5.80648 | 21056 ft | 349 kts | 336° |
| 2026-05-04 13:19 | 50.44428 | 5.79316 | 20512 ft | 349 kts | 336° |
| 2026-05-04 13:19 | 50.46668 | 5.78005 | 19983 ft | 349 kts | 337° |
| 2026-05-04 13:19 | 50.48937 | 5.76676 | 19513 ft | 347 kts | 337° |
| 2026-05-04 13:20 | 50.51192 | 5.75355 | 19048 ft | 345 kts | 337° |
| 2026-05-04 13:20 | 50.53431 | 5.74041 | 18589 ft | 343 kts | 338° |
| 2026-05-04 13:20 | 50.55660 | 5.72732 | 18093 ft | 341 kts | 338° |
| 2026-05-04 13:20 | 50.57851 | 5.71340 | 17549 ft | 337 kts | 329° |
| 2026-05-04 13:21 | 50.59659 | 5.69075 | 17030 ft | 330 kts | 309° |
| 2026-05-04 13:21 | 50.61109 | 5.66352 | 16562 ft | 326 kts | 307° |
| 2026-05-04 13:21 | 50.62522 | 5.63540 | 16084 ft | 323 kts | 306° |
| 2026-05-04 13:21 | 50.63784 | 5.60996 | 15648 ft | 321 kts | 307° |
| 2026-05-04 13:22 | 50.65197 | 5.58154 | 15167 ft | 318 kts | 307° |
| 2026-05-04 13:22 | 50.66560 | 5.55431 | 14699 ft | 316 kts | 307° |
| 2026-05-04 13:22 | 50.67917 | 5.52731 | 14234 ft | 313 kts | 307° |
| 2026-05-04 13:22 | 50.69266 | 5.50054 | 13785 ft | 310 kts | 308° |
| 2026-05-04 13:23 | 50.70600 | 5.47411 | 13276 ft | 307 kts | 308° |
| 2026-05-04 13:23 | 50.71925 | 5.44787 | 12793 ft | 304 kts | 308° |
| 2026-05-04 13:23 | 50.73237 | 5.42189 | 12329 ft | 301 kts | 308° |
| 2026-05-04 13:23 | 50.74535 | 5.39617 | 11872 ft | 298 kts | 308° |
| 2026-05-04 13:24 | 50.75816 | 5.37076 | 11425 ft | 295 kts | 308° |
| 2026-05-04 13:24 | 50.77088 | 5.34550 | 10978 ft | 292 kts | 308° |
| 2026-05-04 13:24 | 50.78346 | 5.32051 | 10539 ft | 290 kts | 308° |
| 2026-05-04 13:25 | 50.80801 | 5.27166 | 9852 ft | 280 kts | 308° |
| 2026-05-04 13:25 | 50.82008 | 5.24761 | 9392 ft | 279 kts | 308° |
| 2026-05-04 13:25 | 50.83208 | 5.22368 | 8963 ft | 276 kts | 308° |
| 2026-05-04 13:25 | 50.84401 | 5.19990 | 8550 ft | 275 kts | 308° |
| 2026-05-04 13:26 | 50.85587 | 5.17620 | 8119 ft | 272 kts | 308° |
| 2026-05-04 13:26 | 50.86746 | 5.15302 | 7718 ft | 267 kts | 307° |
| 2026-05-04 13:26 | 50.87884 | 5.12984 | 7318 ft | 267 kts | 304° |
| 2026-05-04 13:26 | 50.88905 | 5.10538 | 6921 ft | 266 kts | 301° |
| 2026-05-04 13:27 | 50.89572 | 5.08846 | 6654 ft | 265 kts | 301° |
| 2026-05-04 13:27 | 50.90400 | 5.06736 | 6307 ft | 264 kts | 301° |
| 2026-05-04 13:27 | 50.91374 | 5.04274 | 5895 ft | 263 kts | 301° |
| 2026-05-04 13:27 | 50.92349 | 5.01829 | 5476 ft | 262 kts | 301° |
| 2026-05-04 13:28 | 50.93320 | 4.99403 | 5079 ft | 260 kts | 301° |
| 2026-05-04 13:28 | 50.94284 | 4.96996 | 4689 ft | 258 kts | 301° |
| 2026-05-04 13:28 | 50.95244 | 4.94596 | 4299 ft | 257 kts | 301° |
| 2026-05-04 13:28 | 50.96176 | 4.92267 | 4186 ft | 244 kts | 301° |
| 2026-05-04 13:29 | 50.97056 | 4.90064 | 4054 ft | 233 kts | 300° |
| 2026-05-04 13:29 | 50.97483 | 4.87696 | 3939 ft | 221 kts | 265° |
| 2026-05-04 13:29 | 50.97221 | 4.85367 | 3873 ft | 209 kts | 257° |
| 2026-05-04 13:29 | 50.96913 | 4.83165 | 3777 ft | 201 kts | 255° |
| 2026-05-04 13:30 | 50.96534 | 4.81092 | 3658 ft | 191 kts | 251° |
| 2026-05-04 13:30 | 50.96105 | 4.79130 | 3454 ft | 185 kts | 250° |
| 2026-05-04 13:30 | 50.95670 | 4.77239 | 3236 ft | 180 kts | 249° |
| 2026-05-04 13:30 | 50.95244 | 4.75414 | 3034 ft | 174 kts | 249° |
| 2026-05-04 13:31 | 50.94831 | 4.73639 | 2891 ft | 168 kts | 250° |
| 2026-05-04 13:31 | 50.94430 | 4.71914 | 2759 ft | 169 kts | 249° |
| 2026-05-04 13:31 | 50.94032 | 4.70204 | 2540 ft | 162 kts | 250° |
| 2026-05-04 13:31 | 50.93659 | 4.68597 | 2355 ft | 152 kts | 250° |
| 2026-05-04 13:32 | 50.93307 | 4.67076 | 2140 ft | 143 kts | 249° |
| 2026-05-04 13:32 | 50.92976 | 4.65653 | 1967 ft | 133 kts | 249° |
| 2026-05-04 13:32 | 50.92674 | 4.64350 | 1805 ft | 127 kts | 250° |
| 2026-05-04 13:32 | 50.92377 | 4.63067 | 1627 ft | 122 kts | 249° |
| 2026-05-04 13:33 | 50.92086 | 4.61815 | 1468 ft | 120 kts | 250° |
| 2026-05-04 13:33 | 50.91796 | 4.60561 | 1304 ft | 121 kts | 249° |
| 2026-05-04 13:33 | 50.91505 | 4.59302 | 1139 ft | 122 kts | 250° |
| 2026-05-04 13:33 | 50.91212 | 4.58037 | 963 ft | 122 kts | 250° |
| 2026-05-04 13:34 | 50.90920 | 4.56773 | 794 ft | 122 kts | 250° |
| 2026-05-04 13:34 | 50.90627 | 4.55506 | 629 ft | 123 kts | 250° |
| 2026-05-04 13:34 | 50.90334 | 4.54235 | 463 ft | 123 kts | 250° |
| 2026-05-04 13:34 | 50.90039 | 4.52960 | 295 ft | 123 kts | 250° |
| 2026-05-04 13:35 | 50.89748 | 4.51694 | 172 ft | 117 kts | 250° |
| 2026-05-04 13:35 | 50.89349 | 4.49971 | 176 ft | 29 kts | 249° |
| 2026-05-04 13:35 | 50.89335 | 4.49774 | 176 ft | 18 kts | 282° |
| 2026-05-04 13:36 | 50.89391 | 4.49624 | 169 ft | 5 kts | 308° |
| 2026-05-04 13:36 | 50.89393 | 4.49622 | 169 ft | 0 kts | 308° |
| 2026-05-04 13:37 | 50.89394 | 4.49619 | 169 ft | 2 kts | 308° |
| 2026-05-04 13:37 | 50.89423 | 4.49561 | 167 ft | 11 kts | 308° |
| 2026-05-04 13:37 | 50.89483 | 4.49431 | 164 ft | 18 kts | 305° |
| 2026-05-04 13:37 | 50.89538 | 4.49314 | 160 ft | 22 kts | 307° |
| 2026-05-04 13:38 | 50.89645 | 4.49146 | 151 ft | 14 kts | 359° |
| 2026-05-04 13:38 | 50.89752 | 4.49188 | 145 ft | 18 kts | 14° |
| 2026-05-04 13:38 | 50.89882 | 4.49242 | 138 ft | 21 kts | 14° |
| 2026-05-04 13:38 | 50.90032 | 4.49302 | 128 ft | 23 kts | 14° |
| 2026-05-04 13:39 | 50.90158 | 4.49354 | 126 ft | 17 kts | 15° |
| 2026-05-04 13:39 | 50.90269 | 4.49398 | 126 ft | 13 kts | 14° |
| 2026-05-04 13:39 | 50.90348 | 4.49355 | 123 ft | 13 kts | 322° |
| 2026-05-04 13:39 | 50.90399 | 4.49295 | 123 ft | 7 kts | 284° |
| 2026-05-04 13:40 | 50.90377 | 4.49233 | 121 ft | 7 kts | 239° |
| 2026-05-04 13:40 | 50.90351 | 4.49149 | 121 ft | 10 kts | 244° |
| 2026-05-04 13:40 | 50.90321 | 4.49045 | 119 ft | 11 kts | 246° |
| 2026-05-04 13:40 | 50.90299 | 4.48960 | 122 ft | 6 kts | 259° |
| 2026-05-04 13:41 | 50.90324 | 4.48909 | 122 ft | 7 kts | 333° |
| 2026-05-04 13:41 | 50.90358 | 4.48884 | 119 ft | 3 kts | 334° |
| 2026-05-04 13:41 | 50.90365 | 4.48879 | 119 ft | 0 kts | 334° |